createdAt,value
2023-05-05T00:01:37.849Z,8.70
2023-05-05T00:04:05.249Z,8.35
2023-05-05T00:06:32.491Z,9.40
2023-05-05T00:08:59.691Z,9.50
2023-05-05T00:11:26.983Z,8.65
2023-05-05T00:13:54.168Z,9.40
2023-05-05T00:16:23.272Z,8.60
2023-05-05T00:18:50.848Z,8.55
2023-05-05T00:21:18.097Z,7.93
2023-05-05T00:23:45.410Z,8.35
2023-05-05T00:26:13.151Z,8.50
2023-05-05T00:28:41.019Z,8.88
2023-05-05T00:31:08.514Z,9.05
2023-05-05T00:33:35.739Z,7.83
2023-05-05T00:36:03.100Z,8.57
2023-05-05T00:38:30.337Z,8.95
2023-05-05T00:40:57.527Z,8.93
2023-05-05T00:43:24.692Z,8.88
2023-05-05T00:46:02.000Z,8.50
2023-05-05T00:48:30.796Z,7.90
2023-05-05T00:50:58.715Z,7.93
2023-05-05T00:53:27.268Z,7.85
2023-05-05T00:55:54.570Z,8.13
2023-05-05T00:58:21.787Z,8.10
2023-05-05T01:00:49.250Z,8.18
2023-05-05T01:03:16.851Z,8.70
2023-05-05T01:05:53.202Z,8.18
2023-05-05T01:08:36.608Z,8.88
2023-05-05T01:11:17.143Z,7.93
2023-05-05T01:13:50.327Z,8.30
2023-05-05T01:16:25.756Z,8.13
2023-05-05T01:19:24.923Z,7.82
2023-05-05T01:22:00.744Z,8.93
2023-05-05T01:25:08.829Z,8.30
2023-05-05T01:27:56.063Z,8.30
2023-05-05T01:30:49.996Z,8.68
2023-05-05T01:33:23.491Z,7.80
2023-05-05T01:35:55.418Z,8.98
2023-05-05T01:38:26.902Z,8.80
2023-05-05T01:41:08.866Z,8.73
2023-05-05T01:43:37.177Z,8.43
2023-05-05T01:46:06.487Z,7.55
2023-05-05T01:48:34.053Z,8.25
2023-05-05T01:51:03.050Z,8.67
2023-05-05T01:53:31.482Z,7.97
2023-05-05T01:55:59.482Z,8.88
2023-05-05T01:58:28.810Z,8.73
2023-05-05T02:00:57.973Z,8.23
2023-05-05T02:03:26.940Z,8.63
2023-05-05T02:05:55.302Z,8.10
2023-05-05T02:08:24.164Z,8.95
2023-05-05T02:10:52.418Z,8.35
2023-05-05T02:13:22.195Z,8.35
2023-05-05T02:15:51.068Z,8.57
2023-05-05T02:18:19.228Z,8.50
2023-05-05T02:20:47.279Z,8.75
2023-05-05T02:23:14.452Z,8.55
2023-05-05T02:25:50.488Z,8.63
2023-05-05T02:28:21.642Z,8.43
2023-05-05T02:30:58.360Z,7.65
2023-05-05T02:33:28.413Z,9.13
2023-05-05T02:35:57.482Z,9.25
2023-05-05T02:38:28.762Z,9.18
2023-05-05T02:41:01.686Z,9.40
2023-05-05T02:43:31.475Z,9.65
2023-05-05T02:45:58.848Z,9.90
2023-05-05T02:48:29.653Z,9.05
2023-05-05T02:51:00.058Z,9.13
2023-05-05T02:53:32.724Z,9.27
2023-05-05T02:56:18.042Z,9.02
2023-05-05T02:59:00.859Z,9.25
2023-05-05T03:01:37.302Z,8.70
2023-05-05T03:04:13.609Z,9.00
2023-05-05T03:06:49.183Z,8.70
2023-05-05T03:09:30.058Z,8.68
2023-05-05T03:12:07.193Z,7.88
2023-05-05T03:14:46.006Z,8.52
2023-05-05T03:17:18.323Z,9.00
2023-05-05T03:19:46.827Z,8.07
2023-05-05T03:22:14.300Z,7.32
2023-05-05T03:24:50.521Z,8.25
2023-05-05T03:27:20.741Z,7.75
2023-05-05T03:29:47.986Z,7.75
2023-05-05T03:32:16.499Z,7.20
2023-05-05T03:34:44.582Z,7.70
2023-05-05T03:37:11.750Z,7.90
2023-05-05T03:39:40.892Z,7.75
2023-05-05T03:42:09.546Z,7.32
2023-05-05T03:44:37.081Z,7.03
2023-05-05T03:47:04.532Z,7.72
2023-05-05T03:49:34.500Z,7.93
2023-05-05T03:52:01.972Z,7.88
2023-05-05T03:54:29.602Z,7.57
2023-05-05T03:56:56.967Z,8.57
2023-05-05T03:59:24.166Z,8.15
2023-05-05T04:01:51.504Z,8.88
2023-05-05T04:04:18.709Z,7.45
2023-05-05T04:06:46.054Z,7.18
2023-05-05T04:09:14.649Z,6.40
2023-05-05T04:11:43.381Z,6.80
2023-05-05T04:14:11.704Z,6.95
2023-05-05T04:16:39.013Z,7.35
2023-05-05T04:19:06.175Z,8.00
2023-05-05T04:21:33.588Z,7.83
2023-05-05T04:24:01.351Z,7.40
2023-05-05T04:26:28.728Z,7.55
2023-05-05T04:28:56.242Z,8.32
2023-05-05T04:31:23.869Z,8.40
2023-05-05T04:33:53.751Z,8.07
2023-05-05T04:36:21.107Z,8.27
2023-05-05T04:38:48.405Z,8.65
2023-05-05T04:41:15.807Z,8.85
2023-05-05T04:43:44.165Z,8.88
2023-05-05T04:46:11.423Z,9.27
2023-05-05T04:48:39.008Z,8.57
2023-05-05T04:51:07.845Z,8.98
2023-05-05T04:53:36.213Z,9.32
2023-05-05T04:56:03.500Z,9.82
2023-05-05T04:58:31.272Z,9.20
2023-05-05T05:00:58.969Z,9.70
2023-05-05T05:03:26.407Z,9.07
2023-05-05T05:05:54.287Z,9.40
2023-05-05T05:08:21.579Z,9.05
2023-05-05T05:10:48.847Z,8.87
2023-05-05T05:13:16.040Z,8.88
2023-05-05T05:15:43.318Z,8.57
2023-05-05T05:18:10.532Z,7.78
2023-05-05T05:20:38.761Z,8.02
2023-05-05T05:23:06.038Z,8.30
2023-05-05T05:25:36.766Z,7.57
2023-05-05T05:28:10.098Z,8.60
2023-05-05T05:30:44.334Z,7.90
2023-05-05T05:33:12.336Z,8.40
2023-05-05T05:35:40.592Z,7.37
2023-05-05T05:38:08.447Z,8.32
2023-05-05T05:40:36.409Z,8.10
2023-05-05T05:43:04.176Z,8.15
2023-05-05T05:45:31.675Z,8.93
2023-05-05T05:47:58.954Z,8.20
2023-05-05T05:50:28.553Z,8.43
2023-05-05T05:52:56.858Z,8.82
2023-05-05T05:55:24.350Z,8.70
2023-05-05T05:57:52.454Z,8.98
2023-05-05T06:00:21.213Z,8.90
2023-05-05T06:02:55.411Z,8.30
2023-05-05T06:05:26.103Z,7.88
2023-05-05T06:07:53.942Z,7.72
2023-05-05T06:10:27.918Z,8.45
2023-05-05T06:13:09.464Z,7.93
2023-05-05T06:15:40.423Z,7.93
2023-05-05T06:18:07.901Z,8.02
2023-05-05T06:20:35.121Z,8.35
2023-05-05T06:23:02.292Z,8.63
2023-05-05T06:25:32.552Z,8.27
2023-05-05T06:28:00.109Z,8.60
2023-05-05T06:30:27.369Z,8.18
2023-05-05T06:32:54.862Z,8.00
2023-05-05T06:35:22.429Z,8.60
2023-05-05T06:37:49.587Z,8.43
2023-05-05T06:40:16.907Z,8.38
2023-05-05T06:42:44.152Z,8.52
2023-05-05T06:45:16.881Z,8.13
2023-05-05T06:47:44.553Z,8.23
2023-05-05T06:50:11.962Z,8.37
2023-05-05T06:52:39.151Z,8.35
2023-05-05T06:55:06.909Z,8.63
2023-05-05T06:57:34.211Z,8.57
2023-05-05T07:00:03.557Z,8.57
2023-05-05T07:02:30.976Z,8.20
2023-05-05T07:04:58.175Z,8.05
2023-05-05T07:07:25.477Z,7.93
2023-05-05T07:09:52.704Z,7.60
2023-05-05T07:12:19.897Z,8.20
2023-05-05T07:14:47.064Z,8.13
2023-05-05T07:17:14.329Z,7.75
2023-05-05T07:19:41.888Z,7.95
2023-05-05T07:22:09.189Z,8.30
2023-05-05T07:24:36.398Z,8.40
2023-05-05T07:27:03.728Z,7.57
2023-05-05T07:29:31.557Z,7.35
2023-05-05T07:31:58.742Z,8.35
2023-05-05T07:34:26.052Z,8.10
2023-05-05T07:36:53.317Z,7.40
2023-05-05T07:39:21.142Z,6.97
2023-05-05T07:41:48.475Z,6.22
2023-05-05T07:44:16.007Z,6.72
2023-05-05T07:46:43.240Z,7.22
2023-05-05T07:49:10.504Z,6.22
2023-05-05T07:51:37.879Z,6.47
2023-05-05T07:54:05.774Z,5.68
2023-05-05T07:56:33.059Z,6.75
2023-05-05T07:59:00.397Z,6.45
2023-05-05T08:01:27.756Z,6.18
2023-05-05T08:03:55.066Z,6.07
2023-05-05T08:06:23.421Z,6.72
2023-05-05T08:08:53.323Z,6.40
2023-05-05T08:11:21.786Z,5.82
2023-05-05T08:13:49.212Z,5.80
2023-05-05T08:16:16.637Z,5.53
2023-05-05T08:18:44.565Z,5.10
2023-05-05T08:21:12.541Z,5.47
2023-05-05T08:23:39.888Z,5.03
2023-05-05T08:26:07.426Z,5.20
2023-05-05T08:28:36.433Z,3.90
2023-05-05T08:31:08.489Z,3.42
2023-05-05T08:33:35.863Z,3.45
2023-05-05T08:36:03.131Z,3.33
2023-05-05T08:38:30.458Z,3.45
2023-05-05T08:40:57.771Z,3.20
2023-05-05T08:43:25.090Z,2.90
2023-05-05T08:45:52.976Z,3.33
2023-05-05T08:48:22.923Z,3.95
2023-05-05T08:51:01.952Z,3.67
2023-05-05T08:53:48.366Z,3.90
2023-05-05T08:56:16.067Z,3.85
2023-05-05T08:58:43.780Z,4.53
2023-05-05T09:01:12.508Z,3.92
2023-05-05T09:03:40.236Z,4.63
2023-05-05T09:06:09.499Z,3.97
2023-05-05T09:08:37.605Z,3.72
2023-05-05T09:11:05.135Z,4.07
2023-05-05T09:13:32.619Z,3.80
2023-05-05T09:15:59.849Z,3.40
2023-05-05T09:18:27.199Z,3.00
2023-05-05T09:20:54.431Z,2.83
2023-05-05T09:23:21.834Z,2.92
2023-05-05T09:26:04.419Z,2.90
2023-05-05T09:28:32.238Z,2.83
2023-05-05T09:31:15.949Z,3.17
2023-05-05T09:33:43.600Z,3.28
2023-05-05T09:36:11.701Z,3.00
2023-05-05T09:38:38.941Z,2.97
2023-05-05T09:41:06.583Z,3.25
2023-05-05T09:43:52.580Z,2.70
2023-05-05T09:46:20.083Z,2.65
2023-05-05T09:48:47.383Z,2.47
2023-05-05T09:51:14.874Z,2.53
2023-05-05T09:53:42.828Z,2.80
2023-05-05T09:56:10.524Z,2.60
2023-05-05T09:58:37.903Z,2.60
2023-05-05T10:01:06.152Z,2.33
2023-05-05T10:03:33.426Z,2.50
2023-05-05T10:06:01.164Z,2.65
2023-05-05T10:08:31.502Z,2.00
2023-05-05T10:11:00.929Z,2.08
2023-05-05T10:13:28.839Z,2.08
2023-05-05T10:15:57.518Z,2.30
2023-05-05T10:18:26.298Z,2.50
2023-05-05T10:20:58.798Z,1.93
2023-05-05T10:23:39.215Z,2.08
2023-05-05T10:26:07.819Z,2.20
2023-05-05T10:28:43.146Z,2.30
2023-05-05T10:31:25.992Z,2.15
2023-05-05T10:34:02.637Z,1.93
2023-05-05T10:36:30.579Z,2.28
2023-05-05T10:38:59.873Z,2.03
2023-05-05T10:41:27.752Z,2.00
2023-05-05T10:43:57.787Z,1.75
2023-05-05T10:46:44.854Z,1.50
2023-05-05T10:49:24.258Z,1.95
2023-05-05T10:52:20.866Z,1.85
2023-05-05T10:55:29.447Z,1.70
2023-05-05T10:57:56.737Z,1.45
2023-05-05T11:00:39.588Z,1.57
2023-05-05T11:03:18.775Z,1.50
2023-05-05T11:06:04.464Z,1.48
2023-05-05T11:08:33.035Z,1.52
2023-05-05T11:11:01.544Z,1.63
2023-05-05T11:13:29.225Z,1.60
2023-05-05T11:16:00.477Z,1.80
2023-05-05T11:18:38.008Z,1.85
2023-05-05T11:21:15.165Z,1.90
2023-05-05T11:23:46.142Z,1.48
2023-05-05T11:26:14.376Z,2.03
2023-05-05T11:28:59.509Z,1.88
2023-05-05T11:31:27.222Z,1.67
2023-05-05T11:33:54.488Z,1.50
2023-05-05T11:36:38.790Z,1.52
2023-05-05T11:39:33.423Z,1.20
2023-05-05T11:42:19.432Z,1.40
2023-05-05T11:44:47.457Z,1.83
2023-05-05T11:47:14.723Z,1.70
2023-05-05T11:49:42.028Z,1.88
2023-05-05T11:52:14.356Z,1.67
2023-05-05T11:54:50.074Z,1.90
2023-05-05T11:57:21.150Z,1.80
2023-05-05T12:00:03.753Z,1.58
2023-05-05T12:02:32.225Z,1.73
2023-05-05T12:05:00.462Z,1.37
2023-05-05T12:07:30.182Z,1.90
2023-05-05T12:09:58.075Z,2.20
2023-05-05T12:12:40.192Z,1.55
2023-05-05T12:15:09.237Z,1.70
2023-05-05T12:17:40.932Z,1.70
2023-05-05T12:20:09.593Z,1.55
2023-05-05T12:22:37.616Z,1.60
2023-05-05T12:25:07.666Z,2.33
2023-05-05T12:27:35.527Z,1.42
2023-05-05T12:30:17.412Z,1.30
2023-05-05T12:32:45.719Z,1.40
2023-05-05T12:35:13.942Z,1.52
2023-05-05T12:37:42.352Z,1.52
2023-05-05T12:40:45.561Z,1.60
2023-05-05T12:43:32.040Z,1.63
2023-05-05T12:46:11.072Z,1.60
2023-05-05T12:48:41.511Z,2.17
2023-05-05T12:51:23.420Z,1.40
2023-05-05T12:54:07.248Z,1.85
2023-05-05T12:56:40.689Z,1.73
2023-05-05T12:59:23.238Z,1.50
2023-05-05T13:01:55.337Z,1.60
2023-05-05T13:04:27.531Z,1.83
2023-05-05T13:07:21.885Z,1.63
2023-05-05T13:09:50.528Z,1.77
2023-05-05T13:12:18.384Z,1.55
2023-05-05T13:14:46.765Z,2.13
2023-05-05T13:17:14.376Z,1.50
2023-05-05T13:19:42.611Z,1.65
2023-05-05T13:22:10.196Z,1.33
2023-05-05T13:24:49.686Z,1.55
2023-05-05T13:27:18.820Z,1.80
2023-05-05T13:29:46.130Z,1.50
2023-05-05T13:32:13.443Z,1.95
2023-05-05T13:34:41.524Z,1.80
2023-05-05T13:37:08.772Z,1.33
2023-05-05T13:39:37.009Z,2.00
2023-05-05T13:42:04.460Z,1.70
2023-05-05T13:44:31.817Z,1.70
2023-05-05T13:46:59.278Z,2.20
2023-05-05T13:49:27.069Z,1.52
2023-05-05T13:51:55.255Z,1.85
2023-05-05T13:54:22.466Z,1.48
2023-05-05T13:56:49.728Z,1.45
2023-05-05T13:59:16.905Z,1.43
2023-05-05T14:01:44.109Z,1.70
2023-05-05T14:04:11.465Z,1.63
2023-05-05T14:06:38.830Z,1.52
2023-05-05T14:09:07.922Z,1.38
2023-05-05T14:11:35.143Z,1.50
2023-05-05T14:14:02.809Z,1.63
2023-05-05T14:16:30.243Z,1.35
2023-05-05T14:18:57.680Z,2.00
2023-05-05T14:21:24.849Z,1.52
2023-05-05T14:23:52.481Z,1.90
2023-05-05T14:26:19.720Z,1.80
2023-05-05T14:28:49.540Z,1.60
2023-05-05T14:31:17.773Z,1.75
2023-05-05T14:33:44.965Z,1.50
2023-05-05T14:36:12.240Z,1.67
2023-05-05T14:38:39.566Z,1.40
2023-05-05T14:41:06.838Z,1.88
2023-05-05T14:43:34.061Z,1.30
2023-05-05T14:46:06.610Z,1.50
2023-05-05T14:48:34.710Z,1.93
2023-05-05T14:51:01.995Z,1.67
2023-05-05T14:53:29.158Z,1.70
2023-05-05T14:55:56.316Z,1.80
2023-05-05T14:58:24.727Z,1.88
2023-05-05T15:00:52.872Z,1.60
2023-05-05T15:03:20.664Z,1.45
2023-05-05T15:05:47.961Z,1.65
2023-05-05T15:08:15.182Z,1.88
2023-05-05T15:10:42.489Z,1.48
2023-05-05T15:13:09.862Z,1.67
2023-05-05T15:15:37.118Z,1.75
2023-05-05T15:18:04.804Z,1.65
2023-05-05T15:20:31.987Z,1.77
2023-05-05T15:22:59.235Z,2.10
2023-05-05T15:25:26.407Z,1.57
2023-05-05T15:27:53.911Z,1.75
2023-05-05T15:30:21.046Z,2.03
2023-05-05T15:32:48.313Z,1.30
2023-05-05T15:35:15.600Z,1.67
2023-05-05T15:37:42.762Z,2.07
2023-05-05T15:40:10.397Z,1.65
2023-05-05T15:42:37.806Z,1.42
2023-05-05T15:45:06.072Z,2.00
2023-05-05T15:47:33.523Z,1.98
2023-05-05T15:50:00.734Z,1.80
2023-05-05T15:52:28.106Z,1.88
2023-05-05T15:54:55.292Z,1.67
2023-05-05T15:57:22.553Z,1.63
2023-05-05T15:59:53.053Z,1.65
2023-05-05T16:02:23.172Z,1.57
2023-05-05T16:04:50.441Z,1.73
2023-05-05T16:07:17.978Z,1.77
2023-05-05T16:09:45.285Z,1.58
2023-05-05T16:12:12.590Z,1.77
2023-05-05T16:14:39.687Z,1.53
2023-05-05T16:17:07.804Z,1.48
2023-05-05T16:19:35.097Z,1.63
2023-05-05T16:22:02.715Z,1.55
2023-05-05T16:24:30.086Z,1.50
2023-05-05T16:26:57.317Z,1.23
2023-05-05T16:29:24.502Z,1.70
2023-05-05T16:31:51.801Z,1.40
2023-05-05T16:34:18.978Z,1.50
2023-05-05T16:36:46.507Z,1.45
2023-05-05T16:39:13.790Z,2.03
2023-05-05T16:41:41.414Z,1.63
2023-05-05T16:44:08.610Z,1.80
2023-05-05T16:46:37.449Z,1.98
2023-05-05T16:49:04.899Z,1.77
2023-05-05T16:51:32.132Z,1.60
2023-05-05T16:53:59.332Z,1.73
2023-05-05T16:56:28.601Z,1.70
2023-05-05T16:58:55.799Z,1.70
2023-05-05T17:01:23.136Z,1.80
2023-05-05T17:03:50.641Z,2.00
2023-05-05T17:06:17.860Z,1.80
2023-05-05T17:08:45.151Z,2.00
2023-05-05T17:11:13.107Z,1.63
2023-05-05T17:13:40.790Z,1.48
2023-05-05T17:16:08.186Z,1.47
2023-05-05T17:18:35.483Z,1.42
2023-05-05T17:21:02.696Z,1.42
2023-05-05T17:23:30.645Z,1.50
2023-05-05T17:25:59.378Z,1.90
2023-05-05T17:28:26.511Z,1.87
2023-05-05T17:30:53.802Z,1.77
2023-05-05T17:33:22.099Z,1.60
2023-05-05T17:35:49.356Z,1.73
2023-05-05T17:38:17.586Z,1.40
2023-05-05T17:40:45.180Z,1.87
2023-05-05T17:43:12.347Z,1.52
2023-05-05T17:45:39.541Z,1.73
2023-05-05T17:48:06.688Z,1.63
2023-05-05T17:50:34.006Z,1.63
2023-05-05T17:53:01.193Z,1.63
2023-05-05T17:55:28.535Z,1.80
2023-05-05T17:57:59.107Z,1.85
2023-05-05T18:00:26.381Z,1.85
2023-05-05T18:02:53.568Z,2.40
2023-05-05T18:05:20.934Z,2.07
2023-05-05T18:07:48.157Z,1.90
2023-05-05T18:10:15.363Z,2.22
2023-05-05T18:12:42.582Z,2.13
2023-05-05T18:15:10.537Z,1.90
2023-05-05T18:17:37.997Z,2.00
2023-05-05T18:20:07.028Z,2.10
2023-05-05T18:22:34.750Z,1.98
2023-05-05T18:25:01.988Z,1.65
2023-05-05T18:27:29.275Z,2.55
2023-05-05T18:29:56.500Z,1.90
2023-05-05T18:32:23.868Z,2.10
2023-05-05T18:34:51.100Z,2.15
2023-05-05T18:37:18.244Z,2.05
2023-05-05T18:39:45.447Z,2.33
2023-05-05T18:42:13.146Z,2.40
2023-05-05T18:44:40.438Z,2.83
2023-05-05T18:47:08.076Z,2.30
2023-05-05T18:49:35.513Z,2.53
2023-05-05T18:52:02.749Z,3.22
2023-05-05T18:54:30.016Z,3.90
2023-05-05T18:56:57.353Z,4.10
2023-05-05T18:59:24.577Z,4.80
2023-05-05T19:01:51.899Z,4.20
2023-05-05T19:04:29.610Z,3.30
2023-05-05T19:06:58.853Z,3.70
2023-05-05T19:09:26.055Z,3.17
2023-05-05T19:11:53.214Z,3.50
2023-05-05T19:14:20.338Z,3.30
2023-05-05T19:16:47.660Z,2.78
2023-05-05T19:19:14.900Z,3.20
2023-05-05T19:21:42.077Z,3.40
2023-05-05T19:24:09.687Z,2.75
2023-05-05T19:26:37.135Z,4.20
2023-05-05T19:29:04.328Z,3.80
2023-05-05T19:31:31.970Z,2.70
2023-05-05T19:34:01.749Z,3.22
2023-05-05T19:36:31.625Z,2.30
2023-05-05T19:39:02.231Z,2.50
2023-05-05T19:41:30.833Z,3.10
2023-05-05T19:43:58.210Z,2.67
2023-05-05T19:46:28.470Z,2.65
2023-05-05T19:48:55.876Z,3.17
2023-05-05T19:51:23.157Z,2.80
2023-05-05T19:53:50.734Z,2.90
2023-05-05T19:56:18.008Z,2.67
2023-05-05T19:59:00.625Z,2.63
2023-05-05T20:01:29.171Z,2.70
2023-05-05T20:03:56.967Z,2.22
2023-05-05T20:06:24.384Z,2.03
2023-05-05T20:08:52.297Z,1.80
2023-05-05T20:11:21.128Z,1.50
2023-05-05T20:13:49.918Z,1.63
2023-05-05T20:16:17.771Z,1.90
2023-05-05T20:18:45.314Z,2.10
2023-05-05T20:21:12.662Z,1.67
2023-05-05T20:23:39.872Z,2.00
2023-05-05T20:26:07.726Z,2.00
2023-05-05T20:28:35.200Z,1.85
2023-05-05T20:31:02.461Z,1.80
2023-05-05T20:33:29.692Z,2.00
2023-05-05T20:35:57.169Z,2.40
2023-05-05T20:38:24.276Z,2.75
2023-05-05T20:40:52.308Z,2.28
2023-05-05T20:43:19.692Z,2.72
2023-05-05T20:45:47.069Z,2.10
2023-05-05T20:48:14.172Z,2.53
2023-05-05T20:50:41.740Z,2.78
2023-05-05T20:53:10.066Z,2.60
2023-05-05T20:55:37.488Z,2.67
2023-05-05T20:58:05.425Z,2.33
2023-05-05T21:00:32.799Z,2.50
2023-05-05T21:03:00.278Z,2.30
2023-05-05T21:05:27.670Z,2.78
2023-05-05T21:07:54.817Z,2.50
2023-05-05T21:10:22.096Z,2.50
2023-05-05T21:12:49.334Z,2.88
2023-05-05T21:15:16.671Z,3.25
2023-05-05T21:17:44.034Z,2.88
2023-05-05T21:20:12.051Z,3.25
2023-05-05T21:22:39.482Z,3.40
2023-05-05T21:25:19.605Z,3.50
2023-05-05T21:27:48.172Z,3.35
2023-05-05T21:30:15.778Z,3.10
2023-05-05T21:32:43.404Z,3.10
2023-05-05T21:35:10.763Z,2.53
2023-05-05T21:37:41.616Z,2.90
2023-05-05T21:40:13.323Z,3.00
2023-05-05T21:42:41.386Z,3.00
2023-05-05T21:45:10.295Z,2.88
2023-05-05T21:47:37.576Z,3.27
2023-05-05T21:50:05.135Z,2.88
2023-05-05T21:52:32.393Z,3.13
2023-05-05T21:54:59.548Z,2.70
2023-05-05T21:57:26.869Z,3.17
2023-05-05T21:59:54.045Z,3.07
2023-05-05T22:02:21.290Z,2.58
2023-05-05T22:04:51.158Z,2.90
2023-05-05T22:07:18.351Z,2.60
2023-05-05T22:09:46.009Z,2.45
2023-05-05T22:12:13.476Z,2.90
2023-05-05T22:14:40.660Z,3.00
2023-05-05T22:17:07.889Z,2.75
2023-05-05T22:19:35.017Z,3.38
2023-05-05T22:22:02.900Z,3.22
2023-05-05T22:24:30.076Z,3.07
2023-05-05T22:26:57.417Z,3.28
2023-05-05T22:29:25.211Z,3.20
2023-05-05T22:31:52.780Z,2.72
2023-05-05T22:34:21.772Z,3.45
2023-05-05T22:36:49.681Z,2.80
2023-05-05T22:39:18.542Z,3.22
2023-05-05T22:41:46.419Z,3.15
2023-05-05T22:44:13.736Z,2.72
2023-05-05T22:46:41.002Z,3.15
2023-05-05T22:49:08.703Z,3.33
2023-05-05T22:51:36.902Z,2.97
2023-05-05T22:54:04.262Z,2.47
2023-05-05T22:56:31.418Z,2.97
2023-05-05T22:58:58.561Z,3.20
2023-05-05T23:01:26.106Z,2.50
2023-05-05T23:03:53.410Z,2.60
2023-05-05T23:06:20.658Z,2.97
2023-05-05T23:08:48.957Z,2.90
2023-05-05T23:11:16.465Z,3.03
2023-05-05T23:13:43.591Z,2.87
2023-05-05T23:16:10.954Z,3.50
2023-05-05T23:18:38.800Z,3.28
2023-05-05T23:21:06.068Z,3.08
2023-05-05T23:23:33.225Z,3.30
2023-05-05T23:26:00.449Z,2.63
2023-05-05T23:28:27.591Z,3.13
2023-05-05T23:30:55.621Z,3.47
2023-05-05T23:33:22.818Z,3.33
2023-05-05T23:35:50.037Z,3.38
2023-05-05T23:38:17.382Z,2.93
2023-05-05T23:40:44.603Z,3.13
2023-05-05T23:43:12.280Z,2.92
2023-05-05T23:45:39.893Z,3.17
2023-05-05T23:48:07.388Z,2.92
2023-05-05T23:50:34.636Z,2.20
2023-05-05T23:53:01.813Z,3.05
2023-05-05T23:55:28.962Z,3.08
2023-05-05T23:57:56.146Z,2.95
